createdAt,value
2023-03-04T00:00:18.008Z,101
2023-03-04T00:01:46.433Z,99
2023-03-04T00:02:54.878Z,99
2023-03-04T00:04:01.887Z,98
2023-03-04T00:05:09.353Z,94
2023-03-04T00:06:16.513Z,95
2023-03-04T00:07:25.970Z,96
2023-03-04T00:08:33.274Z,96
2023-03-04T00:10:04.578Z,103
2023-03-04T00:11:52.124Z,99
2023-03-04T00:13:17.469Z,94
2023-03-04T00:14:24.748Z,101
2023-03-04T00:15:35.356Z,100
2023-03-04T00:16:43.167Z,102
2023-03-04T00:18:12.061Z,99
2023-03-04T00:19:19.212Z,97
2023-03-04T00:20:37.302Z,97
2023-03-04T00:21:57.925Z,98
2023-03-04T00:23:32.641Z,100
2023-03-04T00:24:40.880Z,94
2023-03-04T00:25:53.322Z,103
2023-03-04T00:27:01.085Z,101
2023-03-04T00:28:11.563Z,106
2023-03-04T00:29:47.174Z,97
2023-03-04T00:31:04.458Z,98
2023-03-04T00:32:12.439Z,101
2023-03-04T00:33:52.198Z,95
2023-03-04T00:35:25.972Z,102
2023-03-04T00:36:53.665Z,100
2023-03-04T00:38:00.725Z,102
2023-03-04T00:39:27.210Z,100
2023-03-04T00:41:15.669Z,101
2023-03-04T00:43:52.418Z,102
2023-03-04T00:45:12.821Z,102
2023-03-04T00:47:33.180Z,110
2023-03-04T00:48:58.027Z,117
2023-03-04T00:50:07.325Z,116
2023-03-04T00:51:27.522Z,120
2023-03-04T00:53:24.772Z,120
2023-03-04T00:54:34.195Z,120
2023-03-04T00:55:41.571Z,122
2023-03-04T00:57:37.175Z,121
2023-03-04T00:58:49.349Z,125
2023-03-04T01:00:06.878Z,118
2023-03-04T01:01:52.588Z,110
2023-03-04T01:03:48.435Z,113
2023-03-04T01:05:53.148Z,113
2023-03-04T01:07:34.518Z,115
2023-03-04T01:08:45.639Z,109
2023-03-04T01:09:55.870Z,118
2023-03-04T01:11:05.279Z,112
2023-03-04T01:13:30.503Z,105
2023-03-04T01:14:58.534Z,104
2023-03-04T01:16:06.125Z,106
2023-03-04T01:17:13.165Z,107
2023-03-04T01:18:22.877Z,96
2023-03-04T01:19:29.790Z,110
2023-03-04T01:21:04.248Z,96
2023-03-04T01:22:19.370Z,94
2023-03-04T01:23:39.401Z,97
2023-03-04T01:24:52.511Z,91
2023-03-04T01:26:30.613Z,90
2023-03-04T01:27:41.793Z,88
2023-03-04T01:28:50.180Z,85
2023-03-04T01:30:05.120Z,87
2023-03-04T01:31:28.546Z,78
2023-03-04T01:32:49.916Z,75
2023-03-04T01:33:59.288Z,74
2023-03-04T01:35:06.259Z,71
2023-03-04T01:36:32.117Z,76
2023-03-04T01:37:46.439Z,67
2023-03-04T01:40:00.342Z,67
2023-03-04T01:41:15.641Z,61
2023-03-04T01:43:34.859Z,73
2023-03-04T01:44:43.611Z,76
2023-03-04T01:46:13.490Z,69
2023-03-04T01:47:39.763Z,68
2023-03-04T01:48:50.374Z,73
2023-03-04T01:49:58.066Z,76
2023-03-04T01:51:07.453Z,71
2023-03-04T01:52:22.268Z,78
2023-03-04T01:53:34.662Z,77
2023-03-04T01:54:41.667Z,78
2023-03-04T01:56:09.548Z,87
2023-03-04T01:57:19.461Z,92
2023-03-04T01:58:33.877Z,87
2023-03-04T01:59:40.931Z,100
2023-03-04T02:00:59.964Z,97
2023-03-04T02:02:13.277Z,94
2023-03-04T02:03:29.467Z,103
2023-03-04T02:04:39.251Z,99
2023-03-04T02:05:46.458Z,104
2023-03-04T02:06:56.407Z,98
2023-03-04T02:08:03.394Z,105
2023-03-04T02:09:22.944Z,102
2023-03-04T02:10:43.088Z,106
2023-03-04T02:11:52.924Z,101
2023-03-04T02:13:10.245Z,104
2023-03-04T02:14:17.313Z,106
2023-03-04T02:15:38.954Z,103
2023-03-04T02:16:50.077Z,106
2023-03-04T02:17:57.038Z,101
2023-03-04T02:19:10.950Z,110
2023-03-04T02:20:23.883Z,94
2023-03-04T02:21:59.924Z,95
2023-03-04T02:23:06.930Z,90
2023-03-04T02:24:22.734Z,92
2023-03-04T02:25:55.042Z,87
2023-03-04T02:27:36.539Z,68
2023-03-04T02:28:49.097Z,66
2023-03-04T02:29:59.008Z,72
2023-03-04T02:31:06.015Z,70
2023-03-04T02:32:15.947Z,71
2023-03-04T02:33:24.012Z,65
2023-03-04T02:34:56.830Z,56
2023-03-04T02:36:31.182Z,61
2023-03-04T02:37:39.955Z,52
2023-03-04T02:38:53.956Z,50
2023-03-04T02:40:01.768Z,48
2023-03-04T02:41:09.461Z,52
2023-03-04T02:42:23.413Z,48
2023-03-04T02:43:35.402Z,52
2023-03-04T02:45:15.905Z,44
2023-03-04T02:46:30.775Z,44
2023-03-04T02:47:40.430Z,44
2023-03-04T02:48:48.133Z,42
2023-03-04T02:50:01.777Z,41
2023-03-04T02:51:11.888Z,38
2023-03-04T02:52:19.286Z,44
2023-03-04T02:53:26.450Z,42
2023-03-04T02:54:33.469Z,40
2023-03-04T02:55:50.358Z,38
2023-03-04T02:56:57.324Z,40
2023-03-04T02:58:06.984Z,35
2023-03-04T02:59:16.241Z,35
2023-03-04T03:00:24.783Z,35
2023-03-04T03:01:43.128Z,36
2023-03-04T03:02:51.012Z,40
2023-03-04T03:04:01.611Z,35
2023-03-04T03:05:21.148Z,34
2023-03-04T03:06:28.581Z,34
2023-03-04T03:07:36.182Z,34
2023-03-04T03:08:54.513Z,27
2023-03-04T03:10:01.807Z,25
2023-03-04T03:11:10.291Z,25
2023-03-04T03:12:31.116Z,27
2023-03-04T03:13:38.746Z,25
2023-03-04T03:14:45.851Z,32
2023-03-04T03:15:52.804Z,25
2023-03-04T03:17:00.524Z,31
2023-03-04T03:18:08.024Z,26
2023-03-04T03:19:22.377Z,25
2023-03-04T03:20:31.987Z,25
2023-03-04T03:21:39.913Z,28
2023-03-04T03:22:46.892Z,27
2023-03-04T03:23:59.077Z,27
2023-03-04T03:25:09.014Z,30
2023-03-04T03:26:15.965Z,25
2023-03-04T03:27:25.620Z,25
2023-03-04T03:28:34.402Z,27
2023-03-04T03:29:48.245Z,27
2023-03-04T03:30:58.772Z,27
2023-03-04T03:32:05.732Z,28
2023-03-04T03:33:13.816Z,28
2023-03-04T03:34:24.786Z,26
2023-03-04T03:35:37.375Z,27
2023-03-04T03:36:46.487Z,28
2023-03-04T03:37:53.438Z,26
2023-03-04T03:39:01.435Z,29
2023-03-04T03:40:09.387Z,30
2023-03-04T03:41:17.544Z,30
2023-03-04T03:42:25.143Z,32
2023-03-04T03:43:34.060Z,28
2023-03-04T03:44:41.011Z,27
2023-03-04T03:45:50.708Z,26
2023-03-04T03:46:57.715Z,27
2023-03-04T03:48:04.667Z,26
2023-03-04T03:49:11.659Z,29
2023-03-04T03:50:19.271Z,31
2023-03-04T03:51:29.036Z,28
2023-03-04T03:52:38.224Z,32
2023-03-04T03:53:45.268Z,33
2023-03-04T03:54:53.081Z,32
2023-03-04T03:56:00.099Z,31
2023-03-04T03:57:07.193Z,33
2023-03-04T03:58:18.569Z,30
2023-03-04T03:59:25.727Z,31
2023-03-04T04:00:37.779Z,27
2023-03-04T04:01:48.444Z,27
2023-03-04T04:03:04.185Z,25
2023-03-04T04:04:11.115Z,25
2023-03-04T04:05:18.821Z,25
2023-03-04T04:06:25.777Z,26
2023-03-04T04:07:36.437Z,25
2023-03-04T04:08:43.410Z,26
2023-03-04T04:09:53.273Z,30
2023-03-04T04:11:07.021Z,25
2023-03-04T04:12:16.699Z,28
2023-03-04T04:13:31.716Z,27
2023-03-04T04:14:38.716Z,25
2023-03-04T04:15:46.557Z,26
2023-03-04T04:16:56.632Z,29
2023-03-04T04:18:25.610Z,31
2023-03-04T04:19:36.900Z,27
2023-03-04T04:20:43.846Z,27
2023-03-04T04:21:50.873Z,26
2023-03-04T04:22:57.948Z,26
2023-03-04T04:24:07.870Z,32
2023-03-04T04:25:24.562Z,27
2023-03-04T04:26:36.378Z,29
2023-03-04T04:27:46.184Z,27
2023-03-04T04:29:07.507Z,30
2023-03-04T04:30:15.575Z,26
2023-03-04T04:31:33.949Z,28
2023-03-04T04:32:41.402Z,29
2023-03-04T04:33:54.567Z,27
2023-03-04T04:35:11.079Z,25
2023-03-04T04:36:24.914Z,25
2023-03-04T04:37:31.877Z,27
2023-03-04T04:38:46.989Z,27
2023-03-04T04:39:53.912Z,34
2023-03-04T04:41:00.903Z,27
2023-03-04T04:42:08.999Z,30
2023-03-04T04:43:16.967Z,33
2023-03-04T04:44:35.935Z,30
2023-03-04T04:45:42.901Z,27
2023-03-04T04:46:50.255Z,30
2023-03-04T04:47:58.633Z,30
2023-03-04T04:49:06.679Z,29
2023-03-04T04:50:25.191Z,29
2023-03-04T04:51:35.667Z,33
2023-03-04T04:52:47.820Z,43
2023-03-04T04:53:58.543Z,39
2023-03-04T04:55:05.553Z,41
2023-03-04T04:56:13.084Z,34
2023-03-04T04:57:20.395Z,31
2023-03-04T04:58:27.499Z,32
2023-03-04T04:59:34.932Z,36
2023-03-04T05:00:44.483Z,37
2023-03-04T05:01:53.005Z,40
2023-03-04T05:03:05.007Z,36
2023-03-04T05:04:14.635Z,34
2023-03-04T05:05:22.502Z,35
2023-03-04T05:06:32.147Z,31
2023-03-04T05:07:41.250Z,30
2023-03-04T05:08:48.140Z,44
2023-03-04T05:09:55.792Z,36
2023-03-04T05:11:03.618Z,52
2023-03-04T05:12:14.953Z,44
2023-03-04T05:13:27.544Z,53
2023-03-04T05:14:35.049Z,47
2023-03-04T05:16:53.669Z,40
2023-03-04T05:18:01.008Z,41
2023-03-04T05:19:08.059Z,39
2023-03-04T05:20:16.754Z,43
2023-03-04T05:21:25.183Z,44
2023-03-04T05:22:33.024Z,45
2023-03-04T05:23:42.333Z,37
2023-03-04T05:24:51.213Z,43
2023-03-04T05:25:58.222Z,36
2023-03-04T05:27:13.877Z,36
2023-03-04T05:28:21.725Z,37
2023-03-04T05:29:28.755Z,34
2023-03-04T05:30:37.799Z,31
2023-03-04T05:31:47.892Z,32
2023-03-04T05:32:54.970Z,25
2023-03-04T05:34:02.433Z,34
2023-03-04T05:35:09.590Z,28
2023-03-04T05:36:17.643Z,27
2023-03-04T05:37:25.571Z,28
2023-03-04T05:38:47.046Z,25
2023-03-04T05:40:01.149Z,26
2023-03-04T05:41:08.511Z,29
2023-03-04T05:42:15.887Z,28
2023-03-04T05:43:22.970Z,29
2023-03-04T05:44:29.992Z,29
2023-03-04T05:45:47.254Z,25
2023-03-04T05:46:57.407Z,29
2023-03-04T05:48:04.716Z,32
2023-03-04T05:49:19.900Z,30
2023-03-04T05:50:27.408Z,29
2023-03-04T05:51:45.148Z,26
2023-03-04T05:52:54.140Z,29
2023-03-04T05:54:04.836Z,32
2023-03-04T05:55:24.121Z,28
2023-03-04T05:56:31.657Z,30
2023-03-04T05:57:38.749Z,29
2023-03-04T05:58:48.920Z,25
2023-03-04T06:02:17.224Z,31
2023-03-04T06:03:26.186Z,30
2023-03-04T06:04:36.228Z,29
2023-03-04T06:05:43.222Z,31
2023-03-04T06:06:51.117Z,31
2023-03-04T06:07:58.077Z,29
2023-03-04T06:09:09.611Z,28
2023-03-04T06:10:16.758Z,29
2023-03-04T06:11:26.435Z,27
2023-03-04T06:12:39.440Z,31
2023-03-04T06:13:46.399Z,27
2023-03-04T06:14:53.384Z,29
2023-03-04T06:16:22.214Z,30
2023-03-04T06:17:29.813Z,26
2023-03-04T06:18:39.465Z,25
2023-03-04T06:20:09.807Z,41
2023-03-04T06:21:16.836Z,36
2023-03-04T06:22:40.400Z,43
2023-03-04T06:24:11.132Z,44
2023-03-04T06:25:18.177Z,50
2023-03-04T06:26:35.364Z,51
2023-03-04T06:27:50.787Z,55
2023-03-04T06:28:57.847Z,49
2023-03-04T06:30:11.116Z,52
2023-03-04T06:31:18.234Z,57
2023-03-04T06:32:29.366Z,52
2023-03-04T06:33:49.976Z,45
2023-03-04T06:35:08.555Z,47
2023-03-04T06:36:19.744Z,47
2023-03-04T06:39:02.758Z,48
2023-03-04T06:40:10.139Z,56
2023-03-04T06:41:17.146Z,57
2023-03-04T06:42:44.478Z,52
2023-03-04T06:43:51.482Z,53
2023-03-04T06:44:59.712Z,52
2023-03-04T06:46:06.795Z,51
2023-03-04T06:47:29.165Z,54
2023-03-04T06:48:36.711Z,50
2023-03-04T06:49:46.811Z,51
2023-03-04T06:50:53.938Z,52
2023-03-04T06:52:00.800Z,50
2023-03-04T06:53:32.313Z,51
2023-03-04T06:54:42.406Z,59
2023-03-04T06:55:50.121Z,54
2023-03-04T06:57:26.297Z,52
2023-03-04T06:58:33.257Z,52
2023-03-04T06:59:55.400Z,51
2023-03-04T07:01:05.901Z,50
2023-03-04T07:02:58.881Z,49
2023-03-04T07:04:08.932Z,51
2023-03-04T07:05:29.733Z,52
2023-03-04T07:06:40.493Z,54
2023-03-04T07:07:47.482Z,59
2023-03-04T07:08:58.146Z,58
2023-03-04T07:10:17.263Z,64
2023-03-04T07:11:30.757Z,52
2023-03-04T07:12:48.366Z,47
2023-03-04T07:13:55.652Z,45
2023-03-04T07:15:04.411Z,52
2023-03-04T07:16:18.326Z,48
2023-03-04T07:17:26.839Z,50
2023-03-04T07:18:34.211Z,51
2023-03-04T07:19:43.681Z,48
2023-03-04T07:20:50.993Z,51
2023-03-04T07:21:58.984Z,49
2023-03-04T07:23:10.809Z,46
2023-03-04T07:24:17.908Z,47
2023-03-04T07:25:37.679Z,47
2023-03-04T07:27:00.030Z,47
2023-03-04T07:28:07.088Z,50
2023-03-04T07:29:15.143Z,50
2023-03-04T07:30:24.953Z,52
2023-03-04T07:31:37.654Z,44
2023-03-04T07:32:45.536Z,37
2023-03-04T07:34:31.596Z,47
2023-03-04T07:35:45.866Z,42
2023-03-04T07:36:52.902Z,45
2023-03-04T07:38:00.719Z,35
2023-03-04T07:39:07.678Z,41
2023-03-04T07:40:15.981Z,44
2023-03-04T07:41:27.739Z,35
2023-03-04T07:42:35.494Z,38
2023-03-04T07:43:42.554Z,44
2023-03-04T07:44:49.633Z,43
2023-03-04T07:45:56.739Z,38
2023-03-04T07:47:06.394Z,31
2023-03-04T07:48:13.636Z,33
2023-03-04T07:49:22.112Z,34
2023-03-04T07:50:32.006Z,41
2023-03-04T07:51:39.083Z,41
2023-03-04T07:52:46.380Z,39
2023-03-04T07:53:53.379Z,27
2023-03-04T07:55:04.419Z,28
2023-03-04T07:56:12.944Z,29
2023-03-04T07:57:20.023Z,29
2023-03-04T07:58:30.549Z,32
2023-03-04T07:59:37.546Z,30
2023-03-04T08:00:44.781Z,33
2023-03-04T08:01:53.217Z,31
2023-03-04T08:03:00.866Z,28
2023-03-04T08:04:10.599Z,29
2023-03-04T08:05:17.793Z,33
2023-03-04T08:06:25.123Z,31
2023-03-04T08:07:32.370Z,31
2023-03-04T08:08:39.394Z,28
2023-03-04T08:09:46.411Z,33
2023-03-04T08:10:54.243Z,28
2023-03-04T08:12:01.491Z,31
2023-03-04T08:13:08.513Z,32
2023-03-04T08:14:15.698Z,32
2023-03-04T08:15:23.354Z,32
2023-03-04T08:16:33.204Z,29
2023-03-04T08:17:40.693Z,34
2023-03-04T08:18:50.345Z,25
2023-03-04T08:19:57.423Z,28
2023-03-04T08:21:07.465Z,36
2023-03-04T08:22:14.528Z,31
2023-03-04T08:23:24.605Z,25
2023-03-04T08:24:31.947Z,29
2023-03-04T08:25:43.388Z,27
2023-03-04T08:26:51.396Z,25
2023-03-04T08:27:58.688Z,25
2023-03-04T08:29:06.317Z,36
2023-03-04T08:30:16.385Z,38
2023-03-04T08:31:27.281Z,33
2023-03-04T08:32:39.074Z,26
2023-03-04T08:33:45.909Z,33
2023-03-04T08:34:55.556Z,25
2023-03-04T08:36:03.949Z,37
2023-03-04T08:37:12.412Z,38
2023-03-04T08:38:20.520Z,25
2023-03-04T08:39:31.357Z,35
2023-03-04T08:40:40.727Z,37
2023-03-04T08:41:48.007Z,31
2023-03-04T08:42:55.177Z,37
2023-03-04T08:44:02.173Z,38
2023-03-04T08:45:09.784Z,38
2023-03-04T08:46:16.813Z,39
2023-03-04T08:47:24.906Z,35
2023-03-04T08:48:32.544Z,40
2023-03-04T08:49:41.520Z,40
2023-03-04T08:50:49.540Z,29
2023-03-04T08:51:56.576Z,38
2023-03-04T08:53:03.547Z,38
2023-03-04T08:54:10.832Z,27
2023-03-04T08:55:17.887Z,35
2023-03-04T08:56:27.764Z,29
2023-03-04T08:57:35.257Z,34
2023-03-04T08:58:42.910Z,27
2023-03-04T08:59:50.152Z,31
2023-03-04T09:01:00.930Z,33
2023-03-04T09:02:08.016Z,38
2023-03-04T09:03:17.616Z,33
2023-03-04T09:04:24.574Z,32
2023-03-04T09:05:34.531Z,25
2023-03-04T09:06:44.426Z,37
2023-03-04T09:07:52.387Z,35
2023-03-04T09:09:02.820Z,25
2023-03-04T09:10:10.917Z,32
2023-03-04T09:11:17.966Z,40
2023-03-04T09:12:24.979Z,41
2023-03-04T09:13:32.667Z,43
2023-03-04T09:14:43.433Z,42
2023-03-04T09:15:51.789Z,46
2023-03-04T09:16:59.761Z,56
2023-03-04T09:18:06.725Z,57
2023-03-04T09:19:13.806Z,56
2023-03-04T09:20:23.524Z,52
2023-03-04T09:21:30.505Z,59
2023-03-04T09:22:37.846Z,57
2023-03-04T09:23:45.233Z,55
2023-03-04T09:24:52.517Z,62
2023-03-04T09:25:59.693Z,61
2023-03-04T09:27:09.549Z,62
2023-03-04T09:28:16.674Z,62
2023-03-04T09:29:23.784Z,61
2023-03-04T09:30:33.653Z,61
2023-03-04T09:31:42.244Z,59
2023-03-04T09:32:50.580Z,62
2023-03-04T09:33:58.489Z,61
2023-03-04T09:35:06.320Z,64
2023-03-04T09:36:13.393Z,55
2023-03-04T09:37:21.073Z,54
2023-03-04T09:38:30.631Z,54
2023-03-04T09:39:38.274Z,55
2023-03-04T09:40:48.357Z,56
2023-03-04T09:41:57.923Z,60
2023-03-04T09:43:07.610Z,56
2023-03-04T09:44:25.778Z,66
2023-03-04T09:45:41.064Z,63
2023-03-04T09:46:48.250Z,65
2023-03-04T09:47:55.278Z,73
2023-03-04T09:49:02.400Z,67
2023-03-04T09:50:10.207Z,78
2023-03-04T09:51:19.812Z,74
2023-03-04T09:52:34.318Z,77
2023-03-04T09:53:49.423Z,75
2023-03-04T09:55:06.721Z,89
2023-03-04T09:56:16.564Z,91
2023-03-04T09:57:26.412Z,96
2023-03-04T09:58:34.111Z,90
2023-03-04T09:59:52.136Z,95
2023-03-04T10:01:05.399Z,94
2023-03-04T10:02:19.165Z,99
2023-03-04T10:03:31.298Z,107
2023-03-04T10:04:48.545Z,99
2023-03-04T10:05:57.652Z,107
2023-03-04T10:07:06.257Z,100
2023-03-04T10:08:16.928Z,107
2023-03-04T10:09:34.211Z,109
2023-03-04T10:10:46.585Z,98
2023-03-04T10:11:53.474Z,109
2023-03-04T10:13:10.472Z,110
2023-03-04T10:14:15.950Z,110
2023-03-04T10:15:26.777Z,107
2023-03-04T10:16:41.639Z,109
2023-03-04T10:17:56.427Z,105
2023-03-04T10:19:14.338Z,106
2023-03-04T10:20:30.270Z,109
2023-03-04T10:21:47.798Z,111
2023-03-04T10:22:58.558Z,117
2023-03-04T10:24:14.585Z,112
2023-03-04T10:25:27.789Z,107
2023-03-04T10:26:35.479Z,114
2023-03-04T10:27:42.777Z,108
2023-03-04T10:28:55.200Z,106
2023-03-04T10:30:06.887Z,113
2023-03-04T10:31:17.144Z,112
2023-03-04T10:32:27.061Z,107
2023-03-04T10:33:34.431Z,107
2023-03-04T10:34:41.503Z,105
2023-03-04T10:35:53.233Z,104
2023-03-04T10:37:06.308Z,105
2023-03-04T10:38:14.955Z,100
2023-03-04T10:39:23.542Z,103
2023-03-04T10:40:36.666Z,103
2023-03-04T10:41:46.134Z,95
2023-03-04T10:43:04.742Z,108
2023-03-04T10:44:16.814Z,101
2023-03-04T10:45:24.177Z,110
2023-03-04T10:46:31.244Z,110
2023-03-04T10:47:38.237Z,109
2023-03-04T10:48:48.275Z,103
2023-03-04T10:49:55.275Z,105
2023-03-04T10:51:02.585Z,99
2023-03-04T10:52:15.554Z,109
2023-03-04T10:53:33.016Z,109
2023-03-04T10:54:46.579Z,111
2023-03-04T10:55:54.609Z,118
2023-03-04T10:57:05.224Z,112
2023-03-04T10:58:20.302Z,111
2023-03-04T10:59:30.452Z,118
2023-03-04T11:00:38.154Z,114
2023-03-04T11:01:45.446Z,114
2023-03-04T11:02:52.573Z,111
2023-03-04T11:04:03.254Z,116
2023-03-04T11:05:11.354Z,112
2023-03-04T11:06:18.346Z,111
2023-03-04T11:07:26.730Z,100
2023-03-04T11:08:34.102Z,111
2023-03-04T11:09:43.214Z,110
2023-03-04T11:10:52.596Z,109
2023-03-04T11:12:00.524Z,105
2023-03-04T11:13:08.551Z,107
2023-03-04T11:14:16.051Z,95
2023-03-04T11:15:23.227Z,99
2023-03-04T11:16:31.202Z,93
2023-03-04T11:17:38.364Z,98
2023-03-04T11:18:48.247Z,88
2023-03-04T11:19:56.412Z,84
2023-03-04T11:21:08.671Z,92
2023-03-04T11:22:20.871Z,87
2023-03-04T11:23:27.945Z,90
2023-03-04T11:24:45.055Z,86
2023-03-04T11:26:00.018Z,84
2023-03-04T11:27:07.391Z,84
2023-03-04T11:28:19.773Z,90
2023-03-04T11:29:27.637Z,83
2023-03-04T11:30:45.593Z,69
2023-03-04T11:32:00.810Z,62
2023-03-04T11:33:12.921Z,65
2023-03-04T11:34:27.791Z,55
2023-03-04T11:35:43.390Z,49
2023-03-04T11:37:01.319Z,56
2023-03-04T11:38:11.258Z,59
2023-03-04T11:39:28.422Z,58
2023-03-04T11:40:41.527Z,51
2023-03-04T11:41:54.854Z,44
2023-03-04T11:43:10.819Z,41
2023-03-04T11:44:22.086Z,44
2023-03-04T11:45:34.025Z,38
2023-03-04T11:47:02.412Z,35
2023-03-04T11:48:37.437Z,32
2023-03-04T11:49:55.894Z,31
2023-03-04T11:51:13.047Z,27
2023-03-04T11:52:36.333Z,32
2023-03-04T11:53:54.539Z,25
2023-03-04T11:55:09.850Z,30
2023-03-04T11:56:22.933Z,27
2023-03-04T11:57:38.862Z,29
2023-03-04T11:58:48.798Z,25
2023-03-04T12:00:06.212Z,26
2023-03-04T12:01:25.371Z,32
2023-03-04T12:02:35.835Z,26
2023-03-04T12:03:48.440Z,39
2023-03-04T12:05:05.400Z,30
2023-03-04T12:06:22.212Z,35
2023-03-04T12:07:37.251Z,25
2023-03-04T12:08:52.891Z,31
2023-03-04T12:10:06.389Z,32
2023-03-04T12:11:21.184Z,40
2023-03-04T12:12:35.855Z,28
2023-03-04T12:13:48.468Z,34
2023-03-04T12:15:14.852Z,26
2023-03-04T12:16:41.889Z,40
2023-03-04T12:17:54.900Z,26
2023-03-04T12:19:17.310Z,25
2023-03-04T12:20:37.824Z,30
2023-03-04T12:21:46.810Z,27
2023-03-04T12:23:04.139Z,36
2023-03-04T12:24:16.205Z,41
2023-03-04T12:25:30.024Z,33
2023-03-04T12:26:47.373Z,29
2023-03-04T12:28:06.175Z,36
2023-03-04T12:29:22.113Z,31
2023-03-04T12:30:42.814Z,31
2023-03-04T12:32:03.907Z,25
2023-03-04T12:33:16.904Z,25
2023-03-04T12:34:23.672Z,42
2023-03-04T12:35:37.750Z,39
2023-03-04T12:36:50.062Z,33
2023-03-04T12:38:07.314Z,30
2023-03-04T12:39:19.606Z,29
2023-03-04T12:40:36.610Z,29
2023-03-04T12:41:54.044Z,25
2023-03-04T12:43:11.335Z,38
2023-03-04T12:44:26.402Z,36
2023-03-04T12:45:34.347Z,39
2023-03-04T12:46:50.130Z,35
2023-03-04T12:48:02.470Z,33
2023-03-04T12:49:22.964Z,38
2023-03-04T12:50:35.199Z,35
2023-03-04T12:51:48.648Z,33
2023-03-04T12:53:06.675Z,32
2023-03-04T12:54:21.917Z,32
2023-03-04T12:55:29.327Z,31
2023-03-04T12:56:41.489Z,27
2023-03-04T12:57:52.615Z,27
2023-03-04T12:58:59.907Z,26
2023-03-04T13:00:07.575Z,30
2023-03-04T13:01:24.633Z,25
2023-03-04T13:02:40.678Z,36
2023-03-04T13:03:56.277Z,49
2023-03-04T13:05:13.894Z,37
2023-03-04T13:06:30.623Z,37
2023-03-04T13:07:47.941Z,40
2023-03-04T13:09:07.948Z,38
2023-03-04T13:10:26.974Z,39
2023-03-04T13:11:33.965Z,29
2023-03-04T13:12:44.171Z,25
2023-03-04T13:13:52.581Z,42
2023-03-04T13:15:04.723Z,42
2023-03-04T13:16:13.403Z,36
2023-03-04T13:17:25.961Z,32
2023-03-04T13:18:41.514Z,33
2023-03-04T13:19:53.732Z,33
2023-03-04T13:21:00.624Z,30
2023-03-04T13:22:11.030Z,28
2023-03-04T13:23:29.029Z,28
2023-03-04T13:24:36.418Z,26
2023-03-04T13:25:50.819Z,25
2023-03-04T13:27:01.521Z,27
2023-03-04T13:28:19.991Z,38
2023-03-04T13:29:32.397Z,38
2023-03-04T13:30:39.667Z,40
2023-03-04T13:31:46.615Z,39
2023-03-04T13:33:04.735Z,49
2023-03-04T13:34:17.813Z,46
2023-03-04T13:35:38.134Z,35
2023-03-04T13:36:50.885Z,44
2023-03-04T13:37:58.640Z,45
2023-03-04T13:39:06.377Z,38
2023-03-04T13:40:21.876Z,36
2023-03-04T13:41:39.692Z,34
2023-03-04T13:42:51.922Z,36
2023-03-04T13:44:00.836Z,35
2023-03-04T13:45:07.966Z,43
2023-03-04T13:46:25.119Z,38
2023-03-04T13:47:34.921Z,35
2023-03-04T13:48:48.110Z,42
2023-03-04T13:49:55.307Z,43
2023-03-04T13:51:23.722Z,48
2023-03-04T13:52:27.298Z,46
2023-03-04T13:53:49.293Z,49
2023-03-04T13:55:02.217Z,55
2023-03-04T13:56:19.448Z,54
2023-03-04T13:57:32.342Z,57
2023-03-04T13:58:39.310Z,69
2023-03-04T13:59:46.370Z,61
2023-03-04T14:00:53.716Z,68
2023-03-04T14:02:02.144Z,71
2023-03-04T14:03:17.044Z,72
2023-03-04T14:04:24.776Z,69
2023-03-04T14:05:40.414Z,75
2023-03-04T14:06:50.502Z,68
2023-03-04T14:07:58.031Z,77
2023-03-04T14:09:22.524Z,73
2023-03-04T14:10:35.023Z,88
2023-03-04T14:12:02.227Z,91
2023-03-04T14:13:09.778Z,88
2023-03-04T14:14:16.816Z,89
2023-03-04T14:15:26.362Z,89
2023-03-04T14:16:33.740Z,85
2023-03-04T14:17:47.602Z,95
2023-03-04T14:19:11.733Z,84
2023-03-04T14:20:24.799Z,79
2023-03-04T14:21:39.627Z,80
2023-03-04T14:22:49.834Z,78
2023-03-04T14:23:57.099Z,83
2023-03-04T14:25:04.111Z,88
2023-03-04T14:26:11.260Z,81
2023-03-04T14:27:18.535Z,88
2023-03-04T14:28:25.504Z,77
2023-03-04T14:29:33.056Z,80
2023-03-04T14:30:43.051Z,76
2023-03-04T14:31:47.209Z,71
2023-03-04T14:32:54.328Z,81
2023-03-04T14:34:03.223Z,86
2023-03-04T14:35:11.880Z,74
2023-03-04T14:36:23.622Z,69
2023-03-04T14:37:30.591Z,65
2023-03-04T14:38:37.579Z,60
2023-03-04T14:39:44.550Z,70
2023-03-04T14:40:53.398Z,58
2023-03-04T14:42:00.601Z,65
2023-03-04T14:43:08.240Z,67
2023-03-04T14:44:15.222Z,70
2023-03-04T14:45:32.246Z,65
2023-03-04T14:46:40.230Z,69
2023-03-04T14:47:47.243Z,65
2023-03-04T14:48:54.230Z,65
2023-03-04T14:50:01.110Z,66
2023-03-04T14:51:10.914Z,73
2023-03-04T14:52:27.894Z,62
2023-03-04T14:53:40.346Z,61
2023-03-04T14:54:47.839Z,65
2023-03-04T14:55:58.315Z,75
2023-03-04T14:57:05.559Z,73
2023-03-04T14:58:18.371Z,71
2023-03-04T14:59:25.364Z,64
2023-03-04T15:00:33.199Z,72
2023-03-04T15:01:40.308Z,63
2023-03-04T15:02:48.240Z,59
2023-03-04T15:03:56.189Z,54
2023-03-04T15:05:14.339Z,59
2023-03-04T15:06:23.096Z,62
2023-03-04T15:07:31.785Z,59
2023-03-04T15:08:43.113Z,50
2023-03-04T15:09:53.287Z,58
2023-03-04T15:11:01.048Z,47
2023-03-04T15:12:08.313Z,56
2023-03-04T15:13:15.512Z,53
2023-03-04T15:14:25.801Z,52
2023-03-04T15:15:44.128Z,57
2023-03-04T15:16:51.387Z,70
2023-03-04T15:17:58.353Z,76
2023-03-04T15:19:10.976Z,71
2023-03-04T15:20:28.127Z,78
2023-03-04T15:21:35.226Z,71
2023-03-04T15:22:42.170Z,77
2023-03-04T15:23:52.473Z,84
2023-03-04T15:25:00.333Z,89
2023-03-04T15:26:08.362Z,92
2023-03-04T15:27:16.286Z,100
2023-03-04T15:28:23.664Z,103
2023-03-04T15:29:30.945Z,92
2023-03-04T15:30:38.003Z,107
2023-03-04T15:31:44.919Z,107
2023-03-04T15:32:52.813Z,112
2023-03-04T15:33:59.906Z,110
2023-03-04T15:35:06.945Z,104
2023-03-04T15:36:19.724Z,108
2023-03-04T15:37:30.630Z,111
2023-03-04T15:38:39.182Z,114
2023-03-04T15:39:48.835Z,117
2023-03-04T15:40:56.042Z,126
2023-03-04T15:42:03.275Z,119
2023-03-04T15:43:10.623Z,117
2023-03-04T15:44:17.539Z,119
2023-03-04T15:45:27.514Z,114
2023-03-04T15:46:35.366Z,120
2023-03-04T15:47:42.440Z,119
2023-03-04T15:48:50.344Z,114
2023-03-04T15:49:58.242Z,120
2023-03-04T15:51:07.020Z,119
2023-03-04T15:52:19.908Z,124
2023-03-04T15:53:28.622Z,111
2023-03-04T15:54:35.705Z,116
2023-03-04T15:55:42.785Z,117
2023-03-04T15:56:47.693Z,117
2023-03-04T15:58:02.468Z,118
2023-03-04T15:59:09.641Z,108
2023-03-04T16:00:16.885Z,111
2023-03-04T16:01:26.972Z,112
2023-03-04T16:02:34.337Z,118
2023-03-04T16:03:42.835Z,120
2023-03-04T16:04:50.393Z,116
2023-03-04T16:05:57.671Z,122
2023-03-04T16:07:05.071Z,125
2023-03-04T16:08:12.757Z,118
2023-03-04T16:09:20.787Z,123
2023-03-04T16:10:28.258Z,117
2023-03-04T16:11:35.326Z,122
2023-03-04T16:12:43.170Z,127
2023-03-04T16:13:53.457Z,113
2023-03-04T16:15:00.456Z,115
2023-03-04T16:16:09.011Z,115
2023-03-04T16:17:16.151Z,104
2023-03-04T16:18:23.743Z,104
2023-03-04T16:19:31.094Z,111
2023-03-04T16:20:39.290Z,113
2023-03-04T16:21:46.417Z,103
2023-03-04T16:22:53.626Z,120
2023-03-04T16:24:00.642Z,114
2023-03-04T16:25:08.070Z,119
2023-03-04T16:26:16.678Z,110
2023-03-04T16:27:30.718Z,108
2023-03-04T16:28:39.381Z,118
2023-03-04T16:29:46.652Z,118
2023-03-04T16:30:53.845Z,114
2023-03-04T16:32:01.781Z,117
2023-03-04T16:33:10.032Z,120
2023-03-04T16:34:17.104Z,125
2023-03-04T16:35:25.298Z,118
2023-03-04T16:36:32.204Z,123
2023-03-04T16:37:41.944Z,128
2023-03-04T16:38:49.080Z,125
2023-03-04T16:39:58.690Z,119
2023-03-04T16:41:05.867Z,123
2023-03-04T16:42:14.017Z,121
2023-03-04T16:43:21.120Z,123
2023-03-04T16:44:32.270Z,121
2023-03-04T16:45:42.709Z,123
2023-03-04T16:46:53.414Z,122
2023-03-04T16:48:00.768Z,124
2023-03-04T16:49:08.031Z,120
2023-03-04T16:50:15.090Z,117
2023-03-04T16:51:24.888Z,118
2023-03-04T16:52:36.139Z,120
2023-03-04T16:53:43.606Z,110
2023-03-04T16:54:53.364Z,115
2023-03-04T16:56:00.369Z,126
2023-03-04T16:57:16.142Z,124
2023-03-04T16:58:24.081Z,121
2023-03-04T16:59:34.664Z,114
2023-03-04T17:00:42.869Z,116
2023-03-04T17:01:50.149Z,120
2023-03-04T17:02:58.149Z,116
2023-03-04T17:04:05.076Z,120
2023-03-04T17:05:12.061Z,120
2023-03-04T17:06:20.811Z,125